createdAt,value
2022-10-07T00:00:52.172Z,87.68
2022-10-07T00:03:20.599Z,87.66
2022-10-07T00:05:48.102Z,88.73
2022-10-07T00:08:15.347Z,88.36
2022-10-07T00:10:43.195Z,87.92
2022-10-07T00:13:11.783Z,88.49
2022-10-07T00:15:39.261Z,88.35
2022-10-07T00:18:06.484Z,88.32
2022-10-07T00:20:39.902Z,87.35
2022-10-07T00:23:07.864Z,86.72
2022-10-07T00:25:38.141Z,87.60
2022-10-07T00:28:05.699Z,87.84
2022-10-07T00:30:33.135Z,87.78
2022-10-07T00:33:00.379Z,87.50
2022-10-07T00:35:27.719Z,88.15
2022-10-07T00:37:54.817Z,88.49
2022-10-07T00:40:21.933Z,88.08
2022-10-07T00:42:49.101Z,88.15
2022-10-07T00:45:17.283Z,88.03
2022-10-07T00:47:46.026Z,88.29
2022-10-07T00:50:16.107Z,88.68
2022-10-07T00:52:46.596Z,88.67
2022-10-07T00:55:16.312Z,88.91
2022-10-07T00:57:44.770Z,88.55
2022-10-07T01:00:12.601Z,88.55
2022-10-07T01:02:39.894Z,89.70
2022-10-07T01:05:08.232Z,89.28
2022-10-07T01:07:36.082Z,88.55
2022-10-07T01:10:03.783Z,87.68
2022-10-07T01:12:49.534Z,87.97
2022-10-07T01:15:16.571Z,87.76
2022-10-07T01:17:43.899Z,87.66
2022-10-07T01:20:29.904Z,87.93
2022-10-07T01:23:06.436Z,87.84
2022-10-07T01:25:43.221Z,87.87
2022-10-07T01:28:23.055Z,88.07
2022-10-07T01:30:54.726Z,87.63
2022-10-07T01:33:27.963Z,87.56
2022-10-07T01:35:57.222Z,87.79
2022-10-07T01:38:28.751Z,88.04
2022-10-07T01:40:58.389Z,88.74
2022-10-07T01:43:25.988Z,90.33
2022-10-07T01:45:54.733Z,90.49
2022-10-07T01:48:21.945Z,89.90
2022-10-07T01:50:51.119Z,89.27
2022-10-07T01:54:03.445Z,88.42
2022-10-07T01:56:31.541Z,87.71
2022-10-07T01:59:17.618Z,87.90
2022-10-07T02:01:47.782Z,87.63
2022-10-07T02:04:18.244Z,88.36
2022-10-07T02:07:11.664Z,88.50
2022-10-07T02:09:41.457Z,88.04
2022-10-07T02:12:15.657Z,87.52
2022-10-07T02:14:54.572Z,87.38
2022-10-07T02:17:24.916Z,87.59
2022-10-07T02:19:54.132Z,87.36
2022-10-07T02:22:23.197Z,87.81
2022-10-07T02:24:55.361Z,89.46
2022-10-07T02:27:25.121Z,90.00
2022-10-07T02:29:58.183Z,88.86
2022-10-07T02:32:27.107Z,89.08
2022-10-07T02:34:57.581Z,88.89
2022-10-07T02:37:31.719Z,88.34
2022-10-07T02:39:59.157Z,87.90
2022-10-07T02:42:49.967Z,88.17
2022-10-07T02:45:26.456Z,87.77
2022-10-07T02:48:09.598Z,87.20
2022-10-07T02:50:39.965Z,88.74
2022-10-07T02:53:08.085Z,88.00
2022-10-07T02:55:36.160Z,87.66
2022-10-07T02:58:07.155Z,88.65
2022-10-07T03:00:37.373Z,87.87
2022-10-07T03:03:05.193Z,88.06
2022-10-07T03:05:58.581Z,89.72
2022-10-07T03:08:26.912Z,89.71
2022-10-07T03:10:54.232Z,89.43
2022-10-07T03:13:21.636Z,89.84
2022-10-07T03:15:53.615Z,88.80
2022-10-07T03:18:28.632Z,88.45
2022-10-07T03:21:08.696Z,88.20
2022-10-07T03:23:36.172Z,86.52
2022-10-07T03:26:03.301Z,84.79
2022-10-07T03:28:36.114Z,84.66
2022-10-07T03:31:07.708Z,85.49
2022-10-07T03:33:37.437Z,86.62
2022-10-07T03:36:05.893Z,86.73
2022-10-07T03:38:34.896Z,87.32
2022-10-07T03:41:04.486Z,87.76
2022-10-07T03:43:32.681Z,87.83
2022-10-07T03:46:02.483Z,87.54
2022-10-07T03:48:31.565Z,87.64
2022-10-07T03:50:59.209Z,87.29
2022-10-07T03:53:29.754Z,86.83
2022-10-07T03:55:59.292Z,87.77
2022-10-07T03:58:27.160Z,87.17
2022-10-07T04:01:04.353Z,86.13
2022-10-07T04:03:31.542Z,85.35
2022-10-07T04:05:59.746Z,85.52
2022-10-07T04:08:30.233Z,85.15
2022-10-07T04:11:00.424Z,84.35
2022-10-07T04:13:27.705Z,83.71
2022-10-07T04:15:55.386Z,83.99
2022-10-07T04:18:23.685Z,84.64
2022-10-07T04:20:53.125Z,84.36
2022-10-07T04:23:21.570Z,84.78
2022-10-07T04:25:48.839Z,85.50
2022-10-07T04:28:20.432Z,85.36
2022-10-07T04:30:51.659Z,84.66
2022-10-07T04:33:22.812Z,84.59
2022-10-07T04:35:50.749Z,84.57
2022-10-07T04:38:18.935Z,85.06
2022-10-07T04:40:50.119Z,85.89
2022-10-07T04:43:20.716Z,85.41
2022-10-07T04:45:54.435Z,85.26
2022-10-07T04:48:23.542Z,85.46
2022-10-07T04:50:52.374Z,85.65
2022-10-07T04:53:21.868Z,85.68
2022-10-07T04:55:51.098Z,85.31
2022-10-07T04:58:20.666Z,84.52
2022-10-07T05:00:49.720Z,84.82
2022-10-07T05:03:19.632Z,84.85
2022-10-07T05:05:53.284Z,84.70
2022-10-07T05:08:21.548Z,84.75
2022-10-07T05:10:53.747Z,84.64
2022-10-07T05:13:20.934Z,85.31
2022-10-07T05:15:49.301Z,85.00
2022-10-07T05:18:17.769Z,84.75
2022-10-07T05:20:47.523Z,84.35
2022-10-07T05:23:15.621Z,84.47
2022-10-07T05:25:43.985Z,83.87
2022-10-07T05:28:12.055Z,84.72
2022-10-07T05:30:40.493Z,84.66
2022-10-07T05:33:09.974Z,85.00
2022-10-07T05:35:38.976Z,84.56
2022-10-07T05:38:09.028Z,84.30
2022-10-07T05:40:36.363Z,84.19
2022-10-07T05:43:03.707Z,84.36
2022-10-07T05:45:31.998Z,84.08
2022-10-07T05:48:00.611Z,83.84
2022-10-07T05:50:27.994Z,83.65
2022-10-07T05:52:55.239Z,84.28
2022-10-07T05:55:22.370Z,85.21
2022-10-07T05:57:49.515Z,85.45
2022-10-07T06:00:16.918Z,85.97
2022-10-07T06:02:48.324Z,85.67
2022-10-07T06:05:15.637Z,85.09
2022-10-07T06:07:43.046Z,84.13
2022-10-07T06:10:28.972Z,83.60
2022-10-07T06:13:08.765Z,83.37
2022-10-07T06:15:37.662Z,82.83
2022-10-07T06:18:05.384Z,82.57
2022-10-07T06:20:33.589Z,82.60
2022-10-07T06:23:00.628Z,82.71
2022-10-07T06:25:28.483Z,82.31
2022-10-07T06:27:57.721Z,81.98
2022-10-07T06:30:27.013Z,81.82
2022-10-07T06:32:56.389Z,81.51
2022-10-07T06:35:23.627Z,80.50
2022-10-07T06:37:52.858Z,79.93
2022-10-07T06:40:20.377Z,79.21
2022-10-07T06:42:47.514Z,79.54
2022-10-07T06:45:36.031Z,79.61
2022-10-07T06:48:03.601Z,79.87
2022-10-07T06:50:31.408Z,80.00
2022-10-07T06:52:58.838Z,80.20
2022-10-07T06:55:28.014Z,81.27
2022-10-07T06:57:56.641Z,80.50
2022-10-07T07:00:24.200Z,80.19
2022-10-07T07:02:51.527Z,79.93
2022-10-07T07:05:19.265Z,79.82
2022-10-07T07:07:47.767Z,79.61
2022-10-07T07:10:15.282Z,79.69
2022-10-07T07:12:47.057Z,79.46
2022-10-07T07:15:14.635Z,78.64
2022-10-07T07:17:41.927Z,78.59
2022-10-07T07:20:10.117Z,80.49
2022-10-07T07:22:38.803Z,79.40
2022-10-07T07:25:06.662Z,78.13
2022-10-07T07:27:33.901Z,77.82
2022-10-07T07:30:01.878Z,77.07
2022-10-07T07:32:31.040Z,77.21
2022-10-07T07:35:00.681Z,76.35
2022-10-07T07:37:30.203Z,76.59
2022-10-07T07:39:57.769Z,76.57
2022-10-07T07:42:25.051Z,76.65
2022-10-07T07:44:52.194Z,75.16
2022-10-07T07:47:21.287Z,75.82
2022-10-07T07:49:50.210Z,76.19
2022-10-07T07:52:30.649Z,76.50
2022-10-07T07:54:59.903Z,75.94
2022-10-07T07:57:27.382Z,75.28
2022-10-07T07:59:56.351Z,75.08
2022-10-07T08:02:24.450Z,74.46
2022-10-07T08:04:53.952Z,73.95
2022-10-07T08:07:22.247Z,73.71
2022-10-07T08:09:50.954Z,72.39
2022-10-07T08:12:21.061Z,71.07
2022-10-07T08:14:49.005Z,69.94
2022-10-07T08:17:16.983Z,69.19
2022-10-07T08:19:44.325Z,67.33
2022-10-07T08:22:17.457Z,64.44
2022-10-07T08:24:47.084Z,60.72
2022-10-07T08:27:17.795Z,60.07
2022-10-07T08:29:45.489Z,60.81
2022-10-07T08:32:12.710Z,61.14
2022-10-07T08:34:40.261Z,60.82
2022-10-07T08:37:07.456Z,60.07
2022-10-07T08:39:34.612Z,59.19
2022-10-07T08:42:13.330Z,59.13
2022-10-07T08:44:42.993Z,57.50
2022-10-07T08:47:16.360Z,54.56
2022-10-07T08:49:43.485Z,54.01
2022-10-07T08:52:17.026Z,51.45
2022-10-07T08:54:44.177Z,48.92
2022-10-07T08:57:19.402Z,48.91
2022-10-07T08:59:49.710Z,50.05
2022-10-07T09:02:23.110Z,50.33
2022-10-07T09:04:54.240Z,51.09
2022-10-07T09:07:33.941Z,50.72
2022-10-07T09:10:05.408Z,51.34
2022-10-07T09:12:41.723Z,51.39
2022-10-07T09:15:16.631Z,49.88
2022-10-07T09:17:49.482Z,51.18
2022-10-07T09:20:18.246Z,51.61
2022-10-07T09:22:53.276Z,51.22
2022-10-07T09:25:22.091Z,51.26
2022-10-07T09:27:50.461Z,51.24
2022-10-07T09:30:19.107Z,51.13
2022-10-07T09:32:47.333Z,51.72
2022-10-07T09:35:16.024Z,50.57
2022-10-07T09:37:55.093Z,51.40
2022-10-07T09:40:30.209Z,52.09
2022-10-07T09:42:58.123Z,52.36
2022-10-07T09:45:26.799Z,52.16
2022-10-07T09:47:56.573Z,51.61
2022-10-07T09:50:29.956Z,51.46
2022-10-07T09:52:57.179Z,50.96
2022-10-07T09:55:37.328Z,50.60
2022-10-07T09:58:06.241Z,49.85
2022-10-07T10:00:41.144Z,50.92
2022-10-07T10:03:08.377Z,51.60
2022-10-07T10:05:39.984Z,51.82
2022-10-07T10:08:13.101Z,50.69
2022-10-07T10:10:49.093Z,51.13
2022-10-07T10:13:24.829Z,50.59
2022-10-07T10:15:52.054Z,51.10
2022-10-07T10:18:32.967Z,50.28
2022-10-07T10:21:20.150Z,50.52
2022-10-07T10:23:49.074Z,51.05
2022-10-07T10:26:41.929Z,51.19
2022-10-07T10:29:25.450Z,51.26
2022-10-07T10:31:53.917Z,49.66
2022-10-07T10:34:32.101Z,50.77
2022-10-07T10:37:01.585Z,50.05
2022-10-07T10:39:48.891Z,49.30
2022-10-07T10:42:21.520Z,49.55
2022-10-07T10:44:54.447Z,50.20
2022-10-07T10:47:35.541Z,50.02
2022-10-07T10:50:13.570Z,49.68
2022-10-07T10:52:45.520Z,49.36
2022-10-07T10:55:12.958Z,50.02
2022-10-07T10:58:00.646Z,49.36
2022-10-07T11:00:37.563Z,49.61
2022-10-07T11:03:25.424Z,50.30
2022-10-07T11:05:55.671Z,49.76
2022-10-07T11:08:27.792Z,48.67
2022-10-07T11:11:07.301Z,48.41
2022-10-07T11:13:39.061Z,47.62
2022-10-07T11:16:06.497Z,47.90
2022-10-07T11:18:36.620Z,48.20
2022-10-07T11:21:07.924Z,50.11
2022-10-07T11:23:48.232Z,49.33
2022-10-07T11:26:41.471Z,49.09
2022-10-07T11:29:27.391Z,49.14
2022-10-07T11:32:14.812Z,49.17
2022-10-07T11:34:56.999Z,49.24
2022-10-07T11:37:59.710Z,49.19
2022-10-07T11:40:29.680Z,48.64
2022-10-07T11:42:58.968Z,46.97
2022-10-07T11:45:28.848Z,47.36
2022-10-07T11:47:58.906Z,48.33
2022-10-07T11:50:36.602Z,48.59
2022-10-07T11:53:09.796Z,48.52
2022-10-07T11:55:56.230Z,48.78
2022-10-07T11:58:26.568Z,48.44
2022-10-07T12:01:13.616Z,47.95
2022-10-07T12:03:40.685Z,47.94
2022-10-07T12:06:13.792Z,46.50
2022-10-07T12:08:42.038Z,45.97
2022-10-07T12:11:12.488Z,46.87
2022-10-07T12:13:41.302Z,47.99
2022-10-07T12:16:37.605Z,47.58
2022-10-07T12:19:07.894Z,47.75
2022-10-07T12:21:53.704Z,48.01
2022-10-07T12:24:20.911Z,48.22
2022-10-07T12:26:48.626Z,47.98
2022-10-07T12:29:19.141Z,47.53
2022-10-07T12:31:46.862Z,46.36
2022-10-07T12:34:22.452Z,47.33
2022-10-07T12:36:49.664Z,47.68
2022-10-07T12:39:22.492Z,47.49
2022-10-07T12:41:50.981Z,47.97
2022-10-07T12:44:21.102Z,48.05
2022-10-07T12:46:56.970Z,47.71
2022-10-07T12:49:31.993Z,47.67
2022-10-07T12:52:03.093Z,47.64
2022-10-07T12:54:34.205Z,45.96
2022-10-07T12:57:02.471Z,46.31
2022-10-07T12:59:48.026Z,46.85
2022-10-07T13:02:18.402Z,47.62
2022-10-07T13:04:48.763Z,48.07
2022-10-07T13:07:36.861Z,47.34
2022-10-07T13:10:16.013Z,47.55
2022-10-07T13:12:43.507Z,47.49
2022-10-07T13:15:22.383Z,46.72
2022-10-07T13:17:52.347Z,46.21
2022-10-07T13:20:22.283Z,45.76
2022-10-07T13:22:49.761Z,45.90
2022-10-07T13:25:19.490Z,46.89
2022-10-07T13:27:50.241Z,47.76
2022-10-07T13:30:34.252Z,47.71
2022-10-07T13:33:17.077Z,47.79
2022-10-07T13:35:44.253Z,47.61
2022-10-07T13:38:24.809Z,47.45
2022-10-07T13:40:58.814Z,47.46
2022-10-07T13:43:27.812Z,46.59
2022-10-07T13:45:55.791Z,46.68
2022-10-07T13:48:25.001Z,47.31
2022-10-07T13:50:54.397Z,47.40
2022-10-07T13:53:25.068Z,47.41
2022-10-07T13:56:06.534Z,47.35
2022-10-07T13:58:34.430Z,47.52
2022-10-07T14:01:06.372Z,47.70
2022-10-07T14:03:33.611Z,47.55
2022-10-07T14:06:01.464Z,47.25
2022-10-07T14:08:29.336Z,46.77
2022-10-07T14:11:03.950Z,45.57
2022-10-07T14:13:34.038Z,46.49
2022-10-07T14:16:01.293Z,46.24
2022-10-07T14:18:29.802Z,45.92
2022-10-07T14:21:10.158Z,45.94
2022-10-07T14:23:37.823Z,46.20
2022-10-07T14:26:06.045Z,47.17
2022-10-07T14:28:34.892Z,47.73
2022-10-07T14:31:26.939Z,48.10
2022-10-07T14:34:15.591Z,48.09
2022-10-07T14:37:01.694Z,48.61
2022-10-07T14:39:39.285Z,48.72
2022-10-07T14:42:10.311Z,48.42
2022-10-07T14:44:37.793Z,48.64
2022-10-07T14:47:15.799Z,48.69
2022-10-07T14:49:43.300Z,49.45
2022-10-07T14:52:13.674Z,49.19
2022-10-07T14:54:41.177Z,49.77
2022-10-07T14:57:08.644Z,49.46
2022-10-07T14:59:36.477Z,50.13
2022-10-07T15:02:04.110Z,50.37
2022-10-07T15:04:31.484Z,50.38
2022-10-07T15:06:58.947Z,50.21
2022-10-07T15:09:26.120Z,49.97
2022-10-07T15:11:53.437Z,50.16
2022-10-07T15:14:20.719Z,50.45
2022-10-07T15:16:48.031Z,50.43
2022-10-07T15:19:15.469Z,50.49
2022-10-07T15:21:42.793Z,50.64
2022-10-07T15:24:10.633Z,50.56
2022-10-07T15:26:37.800Z,50.52
2022-10-07T15:29:07.859Z,50.96
2022-10-07T15:31:35.296Z,50.62
2022-10-07T15:34:02.556Z,51.34
2022-10-07T15:36:30.022Z,50.54
2022-10-07T15:38:59.126Z,50.75
2022-10-07T15:41:34.264Z,50.60
2022-10-07T15:44:12.452Z,50.99
2022-10-07T15:46:40.133Z,51.19
2022-10-07T15:49:07.608Z,50.92
2022-10-07T15:51:37.746Z,51.49
2022-10-07T15:54:06.602Z,51.38
2022-10-07T15:56:34.014Z,51.65
2022-10-07T15:59:02.232Z,52.22
2022-10-07T16:01:32.123Z,52.46
2022-10-07T16:04:02.276Z,52.48
2022-10-07T16:06:36.144Z,52.76
2022-10-07T16:09:04.285Z,52.61
2022-10-07T16:11:33.036Z,53.11
2022-10-07T16:14:01.954Z,53.56
2022-10-07T16:16:31.386Z,53.62
2022-10-07T16:18:59.107Z,53.74
2022-10-07T16:21:27.945Z,53.64
2022-10-07T16:23:55.988Z,53.40
2022-10-07T16:26:26.310Z,53.57
2022-10-07T16:29:12.244Z,53.62
2022-10-07T16:31:40.827Z,53.83
2022-10-07T16:34:09.315Z,54.16
2022-10-07T16:36:36.870Z,53.93
2022-10-07T16:39:05.182Z,54.09
2022-10-07T16:41:32.671Z,54.07
2022-10-07T16:44:00.141Z,53.93
2022-10-07T16:46:27.623Z,54.03
2022-10-07T16:48:55.031Z,54.28
2022-10-07T16:51:23.418Z,54.40
2022-10-07T16:53:53.569Z,54.40
2022-10-07T16:56:21.080Z,54.81
2022-10-07T16:58:54.230Z,54.90
2022-10-07T17:01:21.381Z,54.81
2022-10-07T17:03:49.922Z,54.58
2022-10-07T17:06:18.717Z,55.21
2022-10-07T17:08:48.407Z,54.75
2022-10-07T17:11:29.059Z,55.28
2022-10-07T17:13:57.660Z,55.16
2022-10-07T17:16:26.004Z,55.33
2022-10-07T17:18:53.545Z,55.63
2022-10-07T17:21:21.274Z,56.33
2022-10-07T17:23:48.971Z,56.43
2022-10-07T17:26:16.592Z,56.64
2022-10-07T17:28:43.800Z,56.94
2022-10-07T17:31:12.554Z,57.14
2022-10-07T17:33:40.399Z,57.33
2022-10-07T17:36:08.633Z,57.90
2022-10-07T17:38:43.378Z,58.45
2022-10-07T17:41:21.803Z,58.36
2022-10-07T17:43:50.439Z,58.67
2022-10-07T17:46:18.218Z,58.62
2022-10-07T17:48:46.172Z,58.94
2022-10-07T17:51:15.216Z,59.57
2022-10-07T17:53:42.987Z,59.92
2022-10-07T17:56:11.226Z,60.32
2022-10-07T17:58:39.374Z,61.16
2022-10-07T18:01:13.198Z,62.25
2022-10-07T18:03:40.983Z,63.32
2022-10-07T18:06:08.830Z,63.93
2022-10-07T18:08:36.499Z,65.04
2022-10-07T18:11:03.825Z,65.60
2022-10-07T18:13:50.372Z,66.56
2022-10-07T18:16:17.812Z,67.43
2022-10-07T18:18:45.167Z,67.41
2022-10-07T18:21:12.293Z,67.19
2022-10-07T18:23:40.896Z,67.84
2022-10-07T18:26:10.099Z,68.75
2022-10-07T18:28:41.302Z,69.02
2022-10-07T18:31:12.002Z,68.89
2022-10-07T18:33:39.824Z,69.27
2022-10-07T18:36:08.691Z,69.87
2022-10-07T18:38:37.517Z,69.90
2022-10-07T18:41:06.272Z,70.10
2022-10-07T18:43:33.451Z,70.14
2022-10-07T18:46:02.430Z,69.14
2022-10-07T18:48:30.829Z,69.02
2022-10-07T18:50:58.128Z,70.07
2022-10-07T18:53:25.549Z,69.75
2022-10-07T18:55:53.031Z,70.10
2022-10-07T18:58:20.208Z,70.62
2022-10-07T19:00:47.479Z,69.74
2022-10-07T19:03:14.868Z,69.81
2022-10-07T19:05:42.029Z,69.66
2022-10-07T19:08:09.168Z,69.51
2022-10-07T19:10:41.826Z,69.68
2022-10-07T19:13:33.995Z,69.83
2022-10-07T19:16:04.777Z,69.69
2022-10-07T19:18:35.159Z,69.80
2022-10-07T19:21:03.511Z,69.76
2022-10-07T19:23:30.630Z,70.75
2022-10-07T19:25:58.960Z,70.73
2022-10-07T19:28:26.420Z,70.60
2022-10-07T19:30:53.963Z,70.45
2022-10-07T19:33:21.150Z,70.63
2022-10-07T19:35:53.711Z,70.48
2022-10-07T19:38:21.253Z,70.30
2022-10-07T19:40:48.443Z,70.32
2022-10-07T19:43:16.037Z,70.79
2022-10-07T19:45:43.750Z,71.38
2022-10-07T19:48:14.478Z,71.40
2022-10-07T19:50:42.001Z,71.41
2022-10-07T19:53:10.076Z,71.77
2022-10-07T19:55:37.253Z,71.20
2022-10-07T19:58:04.350Z,71.32
2022-10-07T20:00:31.738Z,71.50
2022-10-07T20:02:58.885Z,71.39
2022-10-07T20:05:28.477Z,71.54
2022-10-07T20:07:56.445Z,71.22
2022-10-07T20:10:24.189Z,71.56
2022-10-07T20:12:51.328Z,71.52
2022-10-07T20:15:18.814Z,71.58
2022-10-07T20:17:46.169Z,71.50
2022-10-07T20:20:14.516Z,72.03
2022-10-07T20:22:44.718Z,72.02
2022-10-07T20:25:15.729Z,72.46
2022-10-07T20:27:42.999Z,72.93
2022-10-07T20:30:17.502Z,74.22
2022-10-07T20:32:45.432Z,74.59
2022-10-07T20:35:12.696Z,74.37
2022-10-07T20:37:39.901Z,73.96
2022-10-07T20:40:25.808Z,73.29
2022-10-07T20:42:54.220Z,73.17
2022-10-07T20:45:21.464Z,72.82
2022-10-07T20:47:48.561Z,73.14
2022-10-07T20:50:15.659Z,73.41
2022-10-07T20:52:42.865Z,73.74
2022-10-07T20:55:16.020Z,73.64
2022-10-07T20:57:43.183Z,73.46
2022-10-07T21:00:16.187Z,73.61
2022-10-07T21:02:44.584Z,73.62
2022-10-07T21:05:12.027Z,73.74
2022-10-07T21:07:39.795Z,73.77
2022-10-07T21:10:07.150Z,74.00
2022-10-07T21:12:34.278Z,74.42
2022-10-07T21:15:03.268Z,74.06
2022-10-07T21:17:31.088Z,73.62
2022-10-07T21:19:58.247Z,74.00
2022-10-07T21:22:25.857Z,73.99
2022-10-07T21:24:53.327Z,74.47
2022-10-07T21:27:20.578Z,74.08
2022-10-07T21:29:48.912Z,73.65
2022-10-07T21:32:16.184Z,74.02
2022-10-07T21:34:43.859Z,74.27
2022-10-07T21:37:11.053Z,74.25
2022-10-07T21:39:38.356Z,74.56
2022-10-07T21:42:05.614Z,74.32
2022-10-07T21:44:34.672Z,74.51
2022-10-07T21:47:02.069Z,74.42
2022-10-07T21:49:29.348Z,74.82
2022-10-07T21:51:56.576Z,74.63
2022-10-07T21:54:23.759Z,74.61
2022-10-07T21:56:50.906Z,74.85
2022-10-07T21:59:18.364Z,74.65
2022-10-07T22:01:45.591Z,74.61
2022-10-07T22:04:15.984Z,74.47
2022-10-07T22:07:01.827Z,74.53
2022-10-07T22:09:32.506Z,74.29
2022-10-07T22:11:59.678Z,74.31
2022-10-07T22:14:28.034Z,74.49
2022-10-07T22:16:55.329Z,74.66
2022-10-07T22:19:23.062Z,74.81
2022-10-07T22:21:50.231Z,74.97
2022-10-07T22:24:17.570Z,75.39
2022-10-07T22:26:51.170Z,75.08
2022-10-07T22:29:18.786Z,75.09
2022-10-07T22:31:46.127Z,74.98
2022-10-07T22:34:33.507Z,75.03
2022-10-07T22:37:01.243Z,74.78
2022-10-07T22:39:28.843Z,74.82
2022-10-07T22:41:56.786Z,74.75
2022-10-07T22:44:28.774Z,74.98
2022-10-07T22:46:56.844Z,75.30
2022-10-07T22:49:29.400Z,76.00
2022-10-07T22:51:58.386Z,76.02
2022-10-07T22:54:25.940Z,76.25
2022-10-07T22:56:53.099Z,76.36
2022-10-07T22:59:21.262Z,76.57
2022-10-07T23:01:48.414Z,76.47
2022-10-07T23:04:15.578Z,76.75
2022-10-07T23:06:42.825Z,76.67
2022-10-07T23:09:10.041Z,76.49
2022-10-07T23:11:37.217Z,76.73
2022-10-07T23:14:05.545Z,76.54
2022-10-07T23:16:34.151Z,76.96
2022-10-07T23:19:01.634Z,77.35
2022-10-07T23:21:32.692Z,77.35
2022-10-07T23:24:05.937Z,77.04
2022-10-07T23:26:35.237Z,77.41
2022-10-07T23:29:03.081Z,77.41
2022-10-07T23:31:32.057Z,77.74
2022-10-07T23:34:00.364Z,77.90
2022-10-07T23:36:27.578Z,78.59
2022-10-07T23:38:54.961Z,78.73
2022-10-07T23:41:23.214Z,78.70
2022-10-07T23:43:57.837Z,78.58
2022-10-07T23:46:26.424Z,78.56
2022-10-07T23:48:53.792Z,78.33
2022-10-07T23:51:22.438Z,78.22
2022-10-07T23:53:49.930Z,77.86
2022-10-07T23:56:18.741Z,78.04
2022-10-07T23:58:45.966Z,78.07
